Time;durP1;ratioP1;P1;durP2;ratioP2;P2;SDS_P1;SDS_P2;PMS_P1;PMS_P2;Temp;Humidity;BMP_temperature;BMP_pressure;BME280_temperature;BME280_humidity;BME280_pressure;Samples;Min_cycle;Max_cycle;Signal;HPM_P1;HPM_P2
2023/11/22 05:29:07;;;;;;;4.17;1.87;;;1.90;99.90;;;;;;5189829;23;20335;-71
2023/11/22 05:31:32;;;;;;;2.90;1.60;;;1.90;99.90;;;;;;4941500;29;20607;-71
2023/11/22 05:33:58;;;;;;;4.03;1.83;;;1.90;99.90;;;;;;4955346;28;20190;-71
2023/11/22 05:36:23;;;;;;;9.47;3.80;;;1.80;99.90;;;;;;4955473;28;20300;-71
2023/11/22 05:38:49;;;;;;;21.53;7.37;;;1.80;99.90;;;;;;4945407;28;20293;-71
2023/11/22 05:41:15;;;;;;;10.67;3.73;;;1.80;99.90;;;;;;4954621;29;20645;-70
2023/11/22 05:43:42;;;;;;;13.07;4.27;;;1.80;99.90;;;;;;4955334;29;20190;-70
2023/11/22 05:46:08;;;;;;;12.70;4.37;;;1.80;99.90;;;;;;4955542;28;20194;-70
2023/11/22 05:48:34;;;;;;;9.60;4.03;;;1.80;99.90;;;;;;4954654;28;20206;-70
2023/11/22 05:50:59;;;;;;;10.23;4.03;;;1.80;99.90;;;;;;4955309;29;20254;-70
2023/11/22 05:53:25;;;;;;;7.00;2.90;;;1.70;99.90;;;;;;4955284;29;20623;-69
2023/11/22 05:55:52;;;;;;;5.07;2.10;;;1.70;99.90;;;;;;4954918;28;20194;-69
2023/11/22 05:58:18;;;;;;;5.10;2.17;;;1.60;99.90;;;;;;4954162;28;20209;-70
2023/11/22 06:00:45;;;;;;;8.27;2.77;;;1.70;99.90;;;;;;4955108;29;20654;-70
2023/11/22 06:03:11;;;;;;;5.47;2.33;;;1.60;99.90;;;;;;4954571;28;20564;-70
2023/11/22 06:05:37;;;;;;;6.30;2.63;;;1.60;99.90;;;;;;4942817;29;20222;-70
2023/11/22 06:08:03;;;;;;;9.03;3.10;;;1.70;99.90;;;;;;4936630;29;20245;-70
2023/11/22 06:10:28;;;;;;;8.10;3.43;;;1.70;99.90;;;;;;4945578;29;20190;-70
2023/11/22 06:12:54;;;;;;;8.87;3.20;;;1.70;99.90;;;;;;4937614;29;20194;-70
2023/11/22 06:15:21;;;;;;;8.20;2.40;;;1.60;99.90;;;;;;4954964;28;20273;-69
2023/11/22 06:17:48;;;;;;;5.33;2.33;;;1.60;99.90;;;;;;4954241;28;20215;-70
2023/11/22 06:20:14;;;;;;;7.23;2.97;;;1.60;99.90;;;;;;4954835;29;20187;-70
2023/11/22 06:22:42;;;;;;;8.50;3.37;;;1.60;99.90;;;;;;4954693;29;20313;-69
2023/11/22 06:25:10;;;;;;;8.40;3.17;;;1.50;99.90;;;;;;4954910;29;20190;-71
2023/11/22 06:27:36;;;;;;;24.73;6.43;;;1.50;99.90;;;;;;4953656;28;20206;-72
2023/11/22 06:30:03;;;;;;;7.40;3.30;;;1.50;99.90;;;;;;4954498;28;20214;-71
2023/11/22 06:32:28;;;;;;;9.07;2.83;;;1.50;99.90;;;;;;4954555;28;20193;-72
2023/11/22 06:34:54;;;;;;;6.23;2.90;;;1.50;99.90;;;;;;4953316;28;20571;-71
2023/11/22 06:37:20;;;;;;;7.83;3.27;;;1.50;99.90;;;;;;4953713;28;20312;-71
2023/11/22 06:39:46;;;;;;;9.87;2.77;;;1.50;99.90;;;;;;4953584;28;20310;-71
2023/11/22 06:42:13;;;;;;;7.63;3.20;;;1.50;99.90;;;;;;4954412;29;20265;-71
2023/11/22 06:44:39;;;;;;;6.43;3.00;;;1.50;99.90;;;;;;4954229;28;20201;-70
2023/11/22 06:47:06;;;;;;;9.17;3.33;;;1.60;99.90;;;;;;4953694;28;20182;-72
2023/11/22 06:49:31;;;;;;;8.57;3.53;;;1.60;99.90;;;;;;4953908;28;20213;-71
2023/11/22 06:51:57;;;;;;;5.93;2.90;;;1.60;99.90;;;;;;4953719;29;20187;-72
2023/11/22 06:54:23;;;;;;;8.17;3.43;;;1.60;99.90;;;;;;4954244;29;20254;-71
2023/11/22 06:56:50;;;;;;;10.93;3.00;;;1.50;99.90;;;;;;4953305;29;20210;-71
2023/11/22 06:59:15;;;;;;;12.43;3.20;;;1.50;99.90;;;;;;4953667;28;20198;-72
2023/11/22 07:01:41;;;;;;;7.17;3.17;;;1.50;99.90;;;;;;4952787;29;20265;-72
2023/11/22 07:04:06;;;;;;;6.07;3.10;;;1.60;99.90;;;;;;4952948;29;20634;-72
2023/11/22 07:06:32;;;;;;;6.77;2.77;;;1.60;99.90;;;;;;4953169;28;20233;-72
2023/11/22 07:08:59;;;;;;;7.10;3.50;;;1.50;99.90;;;;;;4935059;29;20202;-72
2023/11/22 07:11:25;;;;;;;6.53;3.40;;;1.50;99.90;;;;;;4953257;29;20642;-71
2023/11/22 07:13:51;;;;;;;7.73;3.40;;;1.50;99.90;;;;;;4952856;29;20370;-71
2023/11/22 07:16:18;;;;;;;11.13;3.30;;;1.60;99.90;;;;;;4953216;29;20214;-71
2023/11/22 07:18:45;;;;;;;6.20;3.27;;;1.60;99.90;;;;;;4952351;28;20207;-71
2023/11/22 07:21:11;;;;;;;6.97;3.03;;;1.60;99.90;;;;;;4953281;29;20186;-71
2023/11/22 07:23:37;;;;;;;9.90;3.37;;;1.60;99.90;;;;;;4952988;29;20183;-71
2023/11/22 07:26:03;;;;;;;10.30;4.33;;;1.60;99.90;;;;;;4943840;29;20437;-71
2023/11/22 07:28:30;;;;;;;7.37;3.87;;;1.50;99.90;;;;;;4952077;28;20218;-71
2023/11/22 07:30:56;;;;;;;7.77;3.67;;;1.50;99.90;;;;;;4952812;29;20183;-71
2023/11/22 07:33:22;;;;;;;5.73;3.40;;;1.50;99.90;;;;;;4953062;28;20212;-71
2023/11/22 07:35:48;;;;;;;8.57;3.40;;;1.50;99.90;;;;;;4952716;29;20512;-71
2023/11/22 07:38:14;;;;;;;6.90;2.97;;;1.50;99.90;;;;;;4952059;28;20215;-71
2023/11/22 07:40:39;;;;;;;7.80;3.50;;;1.50;99.90;;;;;;4952555;28;20478;-71
2023/11/22 07:43:05;;;;;;;8.43;3.67;;;1.50;99.90;;;;;;4952739;28;20266;-71
2023/11/22 07:45:34;;;;;;;13.67;4.07;;;1.40;99.90;;;;;;4952461;28;20186;-71
2023/11/22 07:48:00;;;;;;;10.23;3.60;;;1.40;99.90;;;;;;4942734;28;20210;-71
2023/11/22 07:50:26;;;;;;;10.40;3.90;;;1.40;99.90;;;;;;4952637;29;20186;-72
2023/11/22 07:52:52;;;;;;;11.13;4.47;;;1.40;99.90;;;;;;4954591;28;20185;-71
2023/11/22 07:55:18;;;;;;;9.23;4.83;;;1.40;99.90;;;;;;4957887;28;20190;-72
2023/11/22 07:57:49;;;;;;;11.30;5.07;;;1.40;99.90;;;;;;4951545;28;20214;-72
2023/11/22 08:00:19;;;;;;;9.80;4.67;;;1.50;99.90;;;;;;4952427;29;20206;-72
2023/11/22 08:02:47;;;;;;;13.13;5.67;;;1.50;99.90;;;;;;4952264;29;20182;-70
2023/11/22 08:05:15;;;;;;;12.43;4.83;;;1.50;99.90;;;;;;4952358;29;20183;-72
2023/11/22 08:07:41;;;;;;;14.20;5.33;;;1.40;99.90;;;;;;4950994;28;20199;-71
2023/11/22 08:10:17;;;;;;;12.83;5.67;;;1.50;99.90;;;;;;4951586;29;20201;-71
2023/11/22 08:12:44;;;;;;;13.00;6.63;;;1.50;99.90;;;;;;4952048;29;20205;-71
2023/11/22 08:15:12;;;;;;;7.80;4.60;;;1.50;99.90;;;;;;4952149;28;20551;-70
2023/11/22 08:17:39;;;;;;;9.20;4.60;;;1.50;99.90;;;;;;4951300;28;20213;-72
2023/11/22 08:20:05;;;;;;;14.70;5.30;;;1.50;99.90;;;;;;4942006;29;20230;-71
2023/11/22 08:22:35;;;;;;;11.87;5.00;;;1.50;99.90;;;;;;4934707;29;20190;-72
2023/11/22 08:25:03;;;;;;;13.00;5.70;;;1.50;99.90;;;;;;4944210;29;20248;-71
2023/11/22 08:27:28;;;;;;;13.50;5.40;;;1.60;99.90;;;;;;4951293;28;20613;-71
2023/11/22 08:29:54;;;;;;;13.73;5.57;;;1.60;99.90;;;;;;4951709;29;20293;-72
2023/11/22 08:32:23;;;;;;;9.77;4.07;;;1.70;99.90;;;;;;4959948;28;20638;-72
2023/11/22 08:34:49;;;;;;;9.40;4.30;;;1.70;99.90;;;;;;4951726;28;20201;-72
2023/11/22 08:37:15;;;;;;;10.87;6.57;;;1.80;99.90;;;;;;4950958;28;20210;-71
2023/11/22 08:39:41;;;;;;;9.47;5.27;;;1.90;99.90;;;;;;4951673;29;20197;-71
2023/11/22 08:42:09;;;;;;;8.93;4.50;;;1.90;99.90;;;;;;4952027;29;20238;-72
2023/11/22 08:44:36;;;;;;;14.13;5.30;;;1.90;99.90;;;;;;4951889;29;20237;-72
2023/11/22 08:47:03;;;;;;;9.50;5.50;;;2.00;99.90;;;;;;4943250;29;20627;-71
2023/11/22 08:49:28;;;;;;;11.07;5.33;;;2.00;99.90;;;;;;4938314;29;20209;-71
2023/11/22 08:51:54;;;;;;;10.33;5.30;;;2.10;99.90;;;;;;4951546;28;20199;-71
2023/11/22 08:54:20;;;;;;;8.43;4.33;;;2.30;99.90;;;;;;4951548;29;20238;-71
2023/11/22 08:56:48;;;;;;;9.80;3.47;;;2.40;99.90;;;;;;4950960;28;20214;-69
2023/11/22 08:59:16;;;;;;;19.33;9.67;;;2.50;99.90;;;;;;4954423;28;20214;-71
2023/11/22 09:01:45;;;;;;;14.80;6.73;;;2.70;99.90;;;;;;4955600;29;20201;-71
2023/11/22 09:04:11;;;;;;;8.33;4.27;;;2.80;99.90;;;;;;4955798;29;20178;-70
2023/11/22 09:06:37;;;;;;;11.43;5.00;;;3.00;99.90;;;;;;4950809;28;20190;-71
2023/11/22 09:09:03;;;;;;;12.30;5.73;;;3.20;99.90;;;;;;4954989;28;20740;-71
2023/11/22 09:11:28;;;;;;;17.43;5.60;;;3.40;99.90;;;;;;4954674;28;20729;-71
2023/11/22 09:13:56;;;;;;;16.00;5.00;;;3.60;99.90;;;;;;4955332;28;20191;-71
2023/11/22 09:16:25;;;;;;;8.67;3.97;;;3.80;99.90;;;;;;4938574;29;20657;-71
2023/11/22 09:18:50;;;;;;;6.80;3.40;;;3.90;99.90;;;;;;4962724;28;20289;-71
2023/11/22 09:21:16;;;;;;;5.73;3.33;;;4.00;99.90;;;;;;4955601;28;20181;-71
2023/11/22 09:23:43;;;;;;;7.10;3.40;;;4.10;99.90;;;;;;4943546;29;20587;-71
2023/11/22 09:26:08;;;;;;;7.07;3.37;;;4.20;99.90;;;;;;4955597;29;20246;-70
2023/11/22 09:28:34;;;;;;;6.37;3.40;;;4.40;99.90;;;;;;4954379;28;20304;-70
2023/11/22 09:31:05;;;;;;;10.83;4.03;;;4.50;99.90;;;;;;4937652;29;20190;-70
2023/11/22 09:33:32;;;;;;;5.87;3.23;;;4.50;99.90;;;;;;4955010;28;20650;-70
2023/11/22 09:36:03;;;;;;;12.13;5.33;;;4.60;99.90;;;;;;4937760;29;20237;-71
2023/11/22 09:38:29;;;;;;;11.20;5.17;;;4.60;99.90;;;;;;4954498;28;20729;-71
2023/11/22 09:40:56;;;;;;;26.27;8.07;;;4.60;99.90;;;;;;4954781;29;20266;-71
2023/11/22 09:43:24;;;;;;;11.90;5.13;;;4.50;99.90;;;;;;4954886;28;20178;-72
2023/11/22 09:45:50;;;;;;;22.13;8.60;;;4.60;99.90;;;;;;4954720;29;20210;-72
2023/11/22 09:48:22;;;;;;;21.33;7.50;;;4.70;99.90;;;;;;4953950;28;20198;-71
2023/11/22 09:50:56;;;;;;;13.23;5.20;;;4.80;99.90;;;;;;4954687;28;20708;-71
2023/11/22 09:53:29;;;;;;;12.03;3.60;;;4.90;99.90;;;;;;4937737;29;20548;-71
2023/11/22 09:55:56;;;;;;;8.27;3.93;;;5.10;99.90;;;;;;4954666;29;20186;-71
2023/11/22 09:58:22;;;;;;;13.47;4.67;;;5.20;99.90;;;;;;4953954;28;20203;-71
2023/11/22 10:00:47;;;;;;;8.13;4.00;;;5.40;99.90;;;;;;4955820;28;20193;-71
2023/11/22 10:03:14;;;;;;;7.70;4.37;;;5.40;99.90;;;;;;4951694;29;20294;-71
2023/11/22 10:05:43;;;;;;;10.50;5.03;;;5.50;99.90;;;;;;4954251;29;20593;-71
2023/11/22 10:08:12;;;;;;;10.70;5.73;;;5.50;99.90;;;;;;4953766;28;20202;-72
2023/11/22 10:10:37;;;;;;;14.50;6.50;;;5.40;99.90;;;;;;4954000;28;20559;-72
2023/11/22 10:13:03;;;;;;;13.23;7.13;;;5.30;99.90;;;;;;4954298;28;20190;-69
2023/11/22 10:15:29;;;;;;;10.77;5.10;;;5.20;99.90;;;;;;4954177;28;20225;-70
2023/11/22 10:17:58;;;;;;;6.83;3.80;;;5.20;99.90;;;;;;4953272;28;20214;-70
2023/11/22 10:20:25;;;;;;;6.70;3.83;;;5.20;99.90;;;;;;4954152;28;20194;-70
2023/11/22 10:22:52;;;;;;;11.47;5.43;;;5.20;99.90;;;;;;4954149;29;20645;-71
2023/11/22 10:25:18;;;;;;;8.50;3.73;;;5.30;99.90;;;;;;4939015;29;20190;-72
2023/11/22 10:27:46;;;;;;;10.57;3.47;;;5.40;99.90;;;;;;4953063;28;20248;-68
2023/11/22 10:30:11;;;;;;;9.40;5.00;;;5.40;99.90;;;;;;4943420;29;20685;-72
2023/11/22 10:32:38;;;;;;;10.47;3.67;;;5.50;99.90;;;;;;4954779;29;20191;-70
2023/11/22 10:35:07;;;;;;;14.03;4.17;;;5.50;99.90;;;;;;4953925;28;20619;-71
2023/11/22 10:37:33;;;;;;;5.87;3.83;;;5.50;99.90;;;;;;4953092;28;20297;-70
2023/11/22 10:39:59;;;;;;;8.53;4.53;;;5.50;99.90;;;;;;4956785;28;20216;-70
2023/11/22 10:42:26;;;;;;;6.17;2.87;;;5.50;99.90;;;;;;4958651;28;20210;-70
2023/11/22 10:44:55;;;;;;;4.40;2.80;;;5.40;99.90;;;;;;4953617;28;20238;-71
2023/11/22 10:47:21;;;;;;;5.10;2.90;;;5.30;99.90;;;;;;4953321;28;20193;-70
2023/11/22 10:49:48;;;;;;;8.33;4.33;;;5.30;99.90;;;;;;4953706;29;20706;-70
2023/11/22 10:52:14;;;;;;;8.23;4.60;;;5.30;99.90;;;;;;4953521;28;20233;-71
2023/11/22 10:54:49;;;;;;;11.73;5.43;;;5.40;99.90;;;;;;4953288;29;20183;-71
2023/11/22 10:57:19;;;;;;;11.10;5.77;;;5.40;99.90;;;;;;4952931;28;20381;-71
2023/11/22 10:59:52;;;;;;;17.67;8.03;;;5.40;99.90;;;;;;4953247;29;20197;-70
2023/11/22 11:02:19;;;;;;;16.30;6.53;;;5.40;99.90;;;;;;4953509;29;20185;-70
2023/11/22 11:04:59;;;;;;;5.50;3.00;;;5.40;99.90;;;;;;4953330;29;20178;-70
2023/11/22 11:07:26;;;;;;;13.03;7.07;;;5.50;99.90;;;;;;4952586;28;20186;-70
2023/11/22 11:09:57;;;;;;;8.67;3.70;;;5.50;99.90;;;;;;4935913;29;20190;-71
2023/11/22 11:12:24;;;;;;;6.20;3.13;;;5.50;99.90;;;;;;4953207;28;20305;-71
2023/11/22 11:14:51;;;;;;;6.53;2.77;;;5.50;99.90;;;;;;4936056;29;20235;-72
2023/11/22 11:17:17;;;;;;;11.93;3.20;;;5.60;99.90;;;;;;4952423;28;20214;-69
2023/11/22 11:19:43;;;;;;;3.60;2.13;;;5.60;99.90;;;;;;4952915;28;20437;-69
2023/11/22 11:22:10;;;;;;;7.77;2.67;;;5.60;99.90;;;;;;4951884;28;20186;-69
2023/11/22 11:24:40;;;;;;;6.67;4.07;;;5.50;99.90;;;;;;4935586;29;20183;-69
2023/11/22 11:27:08;;;;;;;3.93;2.37;;;5.60;99.90;;;;;;4944850;29;20210;-70
2023/11/22 11:29:36;;;;;;;5.00;2.87;;;5.70;99.90;;;;;;4952799;28;20225;-69
2023/11/22 11:32:09;;;;;;;7.83;3.50;;;5.70;99.90;;;;;;4952861;29;20187;-69
2023/11/22 11:34:52;;;;;;;5.73;2.63;;;5.80;99.90;;;;;;4952851;28;20254;-69
2023/11/22 11:37:21;;;;;;;4.87;2.50;;;5.80;99.90;;;;;;4957496;28;20211;-70
2023/11/22 11:39:46;;;;;;;7.20;3.07;;;5.90;99.90;;;;;;4954651;28;20619;-70
2023/11/22 11:42:13;;;;;;;8.00;3.33;;;5.90;99.90;;;;;;4952847;28;20179;-73
2023/11/22 11:45:02;;;;;;;5.03;2.37;;;5.90;99.90;;;;;;4952720;28;20182;-71
2023/11/22 11:47:27;;;;;;;5.63;2.40;;;5.90;99.90;;;;;;4952183;28;20187;-72
2023/11/22 11:49:56;;;;;;;13.67;7.87;;;5.80;99.90;;;;;;4952753;29;20579;-71
2023/11/22 11:52:21;;;;;;;6.93;2.60;;;5.80;99.90;;;;;;4938207;29;20183;-70
2023/11/22 11:54:47;;;;;;;8.07;2.63;;;5.70;99.90;;;;;;4952756;28;20653;-71
2023/11/22 11:57:12;;;;;;;5.33;2.47;;;5.80;99.90;;;;;;4951209;28;20607;-72
2023/11/22 11:59:38;;;;;;;5.83;2.13;;;5.80;99.90;;;;;;4952526;29;20198;-74
2023/11/22 12:02:05;;;;;;;4.73;2.30;;;5.80;99.90;;;;;;4952385;29;20194;-72
2023/11/22 12:04:32;;;;;;;4.27;2.47;;;5.70;99.90;;;;;;4939361;29;20186;-73
2023/11/22 12:06:58;;;;;;;4.77;2.00;;;5.70;99.90;;;;;;4951607;29;20742;-73
2023/11/22 12:09:29;;;;;;;6.30;2.00;;;5.70;99.90;;;;;;4952214;28;20210;-72
2023/11/22 12:11:55;;;;;;;4.97;2.23;;;5.70;99.90;;;;;;4951919;29;20190;-71
2023/11/22 12:14:22;;;;;;;6.13;3.50;;;5.70;99.90;;;;;;4940737;29;20209;-73
2023/11/22 12:16:50;;;;;;;7.03;3.30;;;5.80;99.90;;;;;;4951589;29;20206;-71
2023/11/22 12:19:31;;;;;;;4.60;2.43;;;5.70;99.90;;;;;;4951984;28;20700;-73
2023/11/22 12:21:57;;;;;;;5.97;2.63;;;5.80;99.90;;;;;;4952072;29;20193;-74
2023/11/22 12:24:24;;;;;;;3.87;2.27;;;5.80;99.90;;;;;;4952062;28;20186;-72
2023/11/22 12:26:50;;;;;;;4.87;1.97;;;5.90;99.90;;;;;;4934472;29;20191;-71
2023/11/22 12:29:20;;;;;;;6.43;2.40;;;5.90;99.90;;;;;;4951972;28;20214;-73
2023/11/22 12:31:51;;;;;;;4.97;2.30;;;6.00;99.90;;;;;;4951837;28;20541;-70
2023/11/22 12:34:18;;;;;;;4.30;2.20;;;6.00;99.90;;;;;;4951792;29;20206;-71
2023/11/22 12:36:47;;;;;;;5.07;2.20;;;6.00;99.90;;;;;;4951080;29;20211;-75
2023/11/22 12:39:16;;;;;;;2.77;1.90;;;5.80;99.90;;;;;;4951879;28;20199;-71
2023/11/22 12:41:50;;;;;;;4.80;2.33;;;5.80;99.90;;;;;;4951581;29;20174;-71
2023/11/22 12:44:17;;;;;;;3.43;1.97;;;5.80;99.90;;;;;;4951919;29;20201;-71
2023/11/22 12:47:04;;;;;;;5.33;2.40;;;5.70;99.90;;;;;;4951945;29;20182;-71
2023/11/22 12:49:31;;;;;;;4.80;2.37;;;5.80;99.90;;;;;;4951477;28;20235;-71
2023/11/22 12:51:57;;;;;;;5.07;2.33;;;5.80;99.90;;;;;;4951668;29;20194;-71
2023/11/22 12:54:23;;;;;;;5.00;2.20;;;5.90;99.90;;;;;;4951889;29;20221;-71
2023/11/22 12:56:50;;;;;;;4.50;2.03;;;5.90;99.90;;;;;;4935749;29;20225;-71
2023/11/22 12:59:17;;;;;;;2.93;1.87;;;5.90;99.90;;;;;;4951602;28;20289;-73
2023/11/22 13:01:43;;;;;;;4.07;1.90;;;6.00;99.90;;;;;;4951484;28;20525;-73
2023/11/22 13:04:09;;;;;;;4.63;1.83;;;6.10;99.90;;;;;;4951739;28;20257;-74
2023/11/22 13:06:35;;;;;;;6.10;2.10;;;6.00;99.90;;;;;;4938120;29;20182;-73
2023/11/22 13:09:01;;;;;;;4.40;2.00;;;6.00;99.90;;;;;;4950861;28;20351;-73
2023/11/22 13:11:26;;;;;;;6.23;1.90;;;6.00;99.90;;;;;;4951699;29;20199;-73
2023/11/22 13:13:52;;;;;;;3.97;1.93;;;6.00;99.90;;;;;;4951492;28;20602;-73
2023/11/22 13:16:18;;;;;;;5.50;1.60;;;5.90;99.90;;;;;;4951564;29;20677;-72
2023/11/22 13:18:44;;;;;;;3.33;1.93;;;5.90;99.90;;;;;;4934043;28;20342;-73
2023/11/22 13:21:10;;;;;;;3.93;1.97;;;5.90;99.90;;;;;;4958954;28;20273;-73
2023/11/22 13:23:36;;;;;;;2.80;1.60;;;6.00;99.90;;;;;;4951551;29;20694;-73
2023/11/22 13:26:01;;;;;;;3.23;1.80;;;6.10;99.90;;;;;;4934267;29;20274;-73
2023/11/22 13:28:27;;;;;;;3.33;2.00;;;6.10;99.90;;;;;;4950845;28;20232;-73
2023/11/22 13:30:53;;;;;;;2.50;1.60;;;6.10;99.90;;;;;;4951503;29;20230;-72
2023/11/22 13:33:19;;;;;;;3.83;1.97;;;6.10;99.90;;;;;;4951433;29;20297;-73
2023/11/22 13:35:47;;;;;;;4.93;1.83;;;6.10;99.90;;;;;;4951367;29;20616;-73
2023/11/22 13:38:12;;;;;;;3.47;1.60;;;6.10;99.90;;;;;;4950539;28;20229;-72
2023/11/22 13:40:40;;;;;;;2.97;1.70;;;6.10;99.90;;;;;;4934299;29;20661;-72
2023/11/22 13:43:06;;;;;;;4.13;1.63;;;6.10;99.90;;;;;;4951603;29;20646;-72
2023/11/22 13:45:33;;;;;;;2.63;1.60;;;6.10;99.90;;;;;;4954027;28;20242;-72
2023/11/22 13:48:03;;;;;;;3.93;1.77;;;6.10;99.90;;;;;;4954103;28;20713;-72
2023/11/22 13:50:29;;;;;;;5.07;1.97;;;6.10;99.90;;;;;;4954651;28;20189;-72
2023/11/22 13:52:57;;;;;;;3.33;1.60;;;6.10;99.90;;;;;;4954857;28;20634;-71
2023/11/22 13:55:23;;;;;;;4.55;2.40;;;6.10;99.90;;;;;;4953734;28;20424;-71
2023/11/22 13:57:50;;;;;;;4.13;1.70;;;6.20;99.90;;;;;;4953649;28;20214;-70
2023/11/22 14:00:19;;;;;;;5.93;2.30;;;6.20;99.90;;;;;;4937354;29;20281;-70
2023/11/22 14:02:52;;;;;;;7.47;1.80;;;6.30;99.90;;;;;;4954900;29;20167;-71
2023/11/22 14:05:21;;;;;;;2.93;1.70;;;6.20;99.90;;;;;;4954585;28;20190;-71
2023/11/22 14:07:48;;;;;;;6.50;3.03;;;6.20;99.90;;;;;;4953510;28;20563;-71
2023/11/22 14:10:16;;;;;;;5.23;2.30;;;6.20;99.90;;;;;;4937212;29;20726;-71
2023/11/22 14:12:43;;;;;;;5.47;3.03;;;6.20;99.90;;;;;;4936030;29;20186;-71
2023/11/22 14:15:10;;;;;;;5.40;3.20;;;6.10;99.90;;;;;;4954353;29;20182;-71
2023/11/22 14:17:38;;;;;;;5.77;3.33;;;6.10;99.90;;;;;;4953512;28;20234;-71
2023/11/22 14:20:05;;;;;;;6.47;3.33;;;6.10;99.90;;;;;;4954208;29;20179;-71
2023/11/22 14:22:31;;;;;;;3.53;1.60;;;6.10;99.90;;;;;;4954347;28;20718;-72
2023/11/22 14:24:57;;;;;;;3.40;1.70;;;6.10;99.90;;;;;;4954128;29;20209;-71
2023/11/22 14:27:23;;;;;;;3.13;1.90;;;6.10;99.90;;;;;;4953310;28;20213;-70
2023/11/22 14:29:49;;;;;;;3.07;1.83;;;6.10;99.90;;;;;;4954734;28;20202;-71
2023/11/22 14:32:20;;;;;;;3.00;1.60;;;6.10;99.90;;;;;;4960576;28;20190;-70
2023/11/22 14:34:47;;;;;;;5.37;2.50;;;6.10;99.90;;;;;;4955030;28;20623;-70
2023/11/22 14:37:13;;;;;;;3.47;1.50;;;5.90;99.90;;;;;;4943807;28;20226;-70
2023/11/22 14:39:42;;;;;;;8.10;2.10;;;5.90;99.90;;;;;;4939994;29;20190;-71
2023/11/22 14:42:08;;;;;;;3.97;1.97;;;5.90;99.90;;;;;;4953908;28;20187;-71
2023/11/22 14:44:36;;;;;;;4.70;2.30;;;5.80;99.90;;;;;;4953737;29;21090;-71
2023/11/22 14:47:12;;;;;;;3.33;2.10;;;5.70;99.90;;;;;;4952981;28;20190;-71
2023/11/22 14:49:38;;;;;;;6.57;2.03;;;5.60;99.90;;;;;;4953851;29;20241;-71
2023/11/22 14:52:04;;;;;;;3.90;2.10;;;5.60;99.90;;;;;;4953558;28;20182;-71
2023/11/22 14:54:29;;;;;;;3.60;1.97;;;5.50;99.90;;;;;;4953842;28;20183;-72
2023/11/22 14:56:59;;;;;;;4.17;2.13;;;5.50;99.90;;;;;;4951688;28;20218;-71
2023/11/22 14:59:31;;;;;;;5.73;2.00;;;5.50;99.90;;;;;;4953497;28;20206;-70
2023/11/22 15:01:57;;;;;;;3.33;1.87;;;5.40;99.90;;;;;;4953364;29;20183;-73
2023/11/22 15:04:26;;;;;;;3.37;2.20;;;5.40;99.90;;;;;;4936100;29;20685;-72
2023/11/22 15:06:51;;;;;;;5.40;2.10;;;5.30;99.90;;;;;;4952571;29;20233;-72
2023/11/22 15:09:17;;;;;;;4.17;2.40;;;5.20;99.90;;;;;;4953169;28;20237;-73
2023/11/22 15:11:43;;;;;;;8.60;2.40;;;5.20;99.90;;;;;;4953162;29;20198;-73
2023/11/22 15:14:09;;;;;;;7.13;2.90;;;5.10;99.90;;;;;;4953646;29;20194;-75
2023/11/22 15:16:36;;;;;;;4.33;2.33;;;5.10;99.90;;;;;;4936389;29;20264;-71
2023/11/22 15:19:02;;;;;;;6.30;3.00;;;5.00;99.90;;;;;;4952440;28;20216;-71
2023/11/22 15:21:29;;;;;;;6.63;3.60;;;5.00;99.90;;;;;;4952991;29;20289;-73
2023/11/22 15:23:55;;;;;;;10.03;4.43;;;4.90;99.90;;;;;;4952710;29;20286;-73
2023/11/22 15:26:26;;;;;;;9.10;4.03;;;4.80;99.90;;;;;;4953625;29;20178;-73
2023/11/22 15:28:52;;;;;;;9.70;4.80;;;4.80;99.90;;;;;;4952338;28;20689;-73
2023/11/22 15:31:18;;;;;;;9.83;3.97;;;4.70;99.90;;;;;;4953656;29;20194;-73
2023/11/22 15:33:45;;;;;;;10.60;5.20;;;4.60;99.90;;;;;;4953504;28;20186;-74
2023/11/22 15:36:10;;;;;;;14.77;6.13;;;4.60;99.90;;;;;;4953539;29;20188;-73
2023/11/22 15:38:36;;;;;;;15.60;5.40;;;4.60;99.90;;;;;;4952792;28;20206;-73
2023/11/22 15:41:05;;;;;;;11.83;5.57;;;4.60;99.90;;;;;;4953258;29;20654;-73
2023/11/22 15:43:34;;;;;;;7.47;3.63;;;4.50;99.90;;;;;;4953246;28;20265;-74
2023/11/22 15:45:59;;;;;;;8.70;4.00;;;4.50;99.90;;;;;;4936231;29;20536;-73
2023/11/22 15:48:28;;;;;;;8.00;3.27;;;4.40;99.90;;;;;;4952640;28;20245;-73
2023/11/22 15:50:54;;;;;;;12.80;5.67;;;4.40;99.90;;;;;;4953138;29;20187;-74
2023/11/22 15:53:19;;;;;;;8.60;4.03;;;4.30;99.90;;;;;;4953195;29;20182;-73
2023/11/22 15:55:45;;;;;;;7.73;3.50;;;4.40;99.90;;;;;;4953320;28;20201;-73
2023/11/22 15:58:11;;;;;;;6.63;2.90;;;4.30;99.90;;;;;;4959689;28;20218;-73
2023/11/22 16:00:37;;;;;;;6.73;4.37;;;4.30;99.90;;;;;;4953351;28;20205;-73
2023/11/22 16:03:06;;;;;;;6.47;3.70;;;4.30;99.90;;;;;;4952509;29;20541;-73
2023/11/22 16:05:32;;;;;;;8.27;3.20;;;4.30;99.90;;;;;;4937387;29;20264;-73
2023/11/22 16:07:58;;;;;;;8.30;3.90;;;4.30;99.90;;;;;;4951660;28;20210;-72
2023/11/22 16:10:24;;;;;;;8.33;3.90;;;4.20;99.90;;;;;;4952945;28;20875;-73
2023/11/22 16:12:51;;;;;;;8.73;3.93;;;4.20;99.90;;;;;;4952205;29;20812;-73
2023/11/22 16:15:17;;;;;;;8.77;4.50;;;4.20;99.90;;;;;;4952577;29;20182;-73
2023/11/22 16:17:43;;;;;;;9.10;3.90;;;4.20;99.90;;;;;;4951852;28;20214;-74
2023/11/22 16:20:14;;;;;;;12.93;4.40;;;4.20;99.90;;;;;;4952997;28;20529;-73
2023/11/22 16:22:44;;;;;;;14.53;4.27;;;4.20;99.90;;;;;;4952758;29;20658;-73
2023/11/22 16:25:12;;;;;;;14.10;4.97;;;4.10;99.90;;;;;;4945383;29;20183;-74
2023/11/22 16:27:41;;;;;;;12.80;5.63;;;4.20;99.90;;;;;;4952309;28;20206;-76
2023/11/22 16:30:08;;;;;;;15.43;5.33;;;4.20;99.90;;;;;;4944659;28;20205;-73
2023/11/22 16:32:38;;;;;;;14.13;5.23;;;4.20;99.90;;;;;;4954087;29;20625;-75
2023/11/22 16:35:05;;;;;;;19.97;5.90;;;4.20;99.90;;;;;;4954169;29;20192;-75
2023/11/22 16:37:35;;;;;;;22.67;5.63;;;4.20;99.90;;;;;;4954158;28;20206;-75
2023/11/22 16:40:08;;;;;;;13.30;5.60;;;4.20;99.90;;;;;;4954649;29;20259;-75
2023/11/22 16:42:34;;;;;;;21.48;8.52;;;4.20;99.90;;;;;;4935310;29;20424;-75
2023/11/22 16:45:09;;;;;;;20.97;7.80;;;4.20;99.90;;;;;;4952818;29;20544;-75
2023/11/22 16:47:36;;;;;;;14.73;6.37;;;4.20;99.90;;;;;;4952112;28;20292;-73
2023/11/22 16:50:04;;;;;;;12.60;5.80;;;4.20;99.90;;;;;;4952818;28;20282;-75
2023/11/22 16:52:32;;;;;;;11.83;5.67;;;4.20;99.90;;;;;;4952739;29;20277;-74
2023/11/22 16:55:03;;;;;;;14.40;5.20;;;4.20;99.90;;;;;;4952373;29;20269;-75
2023/11/22 16:57:29;;;;;;;11.03;4.67;;;4.10;99.90;;;;;;4952100;28;20203;-73
2023/11/22 16:59:54;;;;;;;9.73;4.53;;;4.10;99.90;;;;;;4934738;29;20189;-73
2023/11/22 17:02:20;;;;;;;9.83;4.90;;;4.10;99.90;;;;;;4951974;29;20175;-72
2023/11/22 17:04:54;;;;;;;9.70;4.40;;;4.00;99.90;;;;;;4950629;29;20235;-74
2023/11/22 17:07:20;;;;;;;9.63;4.40;;;4.00;99.90;;;;;;4951776;28;20264;-73
2023/11/22 17:09:48;;;;;;;12.57;4.63;;;4.10;99.90;;;;;;4950908;29;20273;-74
2023/11/22 17:12:16;;;;;;;12.83;5.53;;;4.10;99.90;;;;;;4952351;28;20190;-72
2023/11/22 17:14:41;;;;;;;13.90;5.00;;;4.00;99.90;;;;;;4952173;29;20241;-72
2023/11/22 17:17:07;;;;;;;14.20;5.10;;;4.00;99.90;;;;;;4951625;28;20648;-72
2023/11/22 17:19:33;;;;;;;10.37;5.40;;;3.90;99.90;;;;;;4953609;28;20194;-72
2023/11/22 17:21:58;;;;;;;12.10;5.00;;;3.90;99.90;;;;;;4955845;29;20646;-74
2023/11/22 17:24:24;;;;;;;15.67;6.43;;;3.90;99.90;;;;;;4946579;29;20236;-74
2023/11/22 17:26:51;;;;;;;16.73;7.97;;;3.90;99.90;;;;;;4956827;28;20183;-72
2023/11/22 17:29:16;;;;;;;16.23;6.90;;;3.90;99.90;;;;;;4955757;28;20214;-71
2023/11/22 17:31:42;;;;;;;13.87;6.60;;;3.80;99.90;;;;;;4955856;28;20209;-72
2023/11/22 17:34:08;;;;;;;15.97;6.77;;;3.80;99.90;;;;;;4939001;29;20574;-72
2023/11/22 17:36:33;;;;;;;12.90;5.90;;;3.80;99.90;;;;;;4955752;28;20222;-73
2023/11/22 17:38:59;;;;;;;14.43;6.33;;;3.80;99.90;;;;;;4952806;28;20214;-72
2023/11/22 17:41:24;;;;;;;16.33;5.30;;;3.70;99.90;;;;;;4937219;29;21067;-71
2023/11/22 17:43:50;;;;;;;11.77;5.17;;;3.70;99.90;;;;;;4955649;28;20190;-72
2023/11/22 17:46:16;;;;;;;12.87;5.70;;;3.60;99.90;;;;;;4955606;29;20179;-73
2023/11/22 17:48:42;;;;;;;12.33;5.67;;;3.60;99.90;;;;;;4954939;28;20198;-72
2023/11/22 17:51:08;;;;;;;11.47;5.03;;;3.60;99.90;;;;;;4955591;29;20197;-72
2023/11/22 17:53:33;;;;;;;12.13;5.83;;;3.60;99.90;;;;;;4955300;29;20698;-72
2023/11/22 17:55:59;;;;;;;17.57;6.37;;;3.60;99.90;;;;;;4962183;28;20186;-72
2023/11/22 17:58:26;;;;;;;16.30;6.17;;;3.60;99.90;;;;;;4951267;28;20306;-72
2023/11/22 18:00:52;;;;;;;13.60;6.87;;;3.60;99.90;;;;;;4939619;29;20562;-72
2023/11/22 18:03:18;;;;;;;14.80;6.47;;;3.60;99.90;;;;;;4954494;29;20710;-70
2023/11/22 18:05:43;;;;;;;18.73;6.70;;;3.60;99.90;;;;;;4954531;29;20213;-73
2023/11/22 18:08:09;;;;;;;16.80;7.07;;;3.60;99.90;;;;;;4952742;28;20234;-72
2023/11/22 18:10:35;;;;;;;15.50;6.33;;;3.60;99.90;;;;;;4955292;29;20527;-72
2023/11/22 18:13:01;;;;;;;15.53;6.93;;;3.70;99.90;;;;;;4954947;29;20254;-72
2023/11/22 18:15:27;;;;;;;13.87;5.73;;;3.70;99.90;;;;;;4937999;29;20229;-72
2023/11/22 18:17:54;;;;;;;14.13;6.80;;;3.70;99.90;;;;;;4954180;28;20225;-72
2023/11/22 18:20:20;;;;;;;16.13;7.07;;;3.80;99.90;;;;;;4955025;29;20177;-73